Time;durP1;ratioP1;P1;durP2;ratioP2;P2;SDS_P1;SDS_P2;PMS_P1;PMS_P2;Temp;Humidity;BMP_temperature;BMP_pressure;BME280_temperature;BME280_humidity;BME280_pressure;Samples;Min_cycle;Max_cycle;Signal;HPM_P1;HPM_P2
2023/01/05 00:01:13;;;;;;;22.85;3.17;;;9.80;99.90;;;;;;5012597;28;20480;-79
2023/01/05 00:03:38;;;;;;;28.00;2.88;;;9.70;99.90;;;;;;5030012;28;20393;-79
2023/01/05 00:06:16;;;;;;;29.00;3.67;;;9.70;99.90;;;;;;5012727;28;20057;-78
2023/01/05 00:08:42;;;;;;;28.67;3.30;;;9.70;99.90;;;;;;5012535;28;20041;-78
2023/01/05 00:22:31;;;;;;;31.65;2.83;;;9.70;99.90;;;;;;5014746;28;20132;-78
2023/01/05 00:25:10;;;;;;;30.67;3.75;;;9.70;99.90;;;;;;5029248;28;20051;-78
2023/01/05 00:27:37;;;;;;;24.40;2.95;;;9.80;99.90;;;;;;5046664;28;20171;-78
2023/01/05 00:30:04;;;;;;;20.67;3.33;;;9.80;99.90;;;;;;5029030;28;20095;-78
2023/01/05 00:32:29;;;;;;;13.85;1.85;;;9.70;99.90;;;;;;5028681;28;20105;-78
2023/01/05 00:34:57;;;;;;;14.55;2.20;;;9.60;99.90;;;;;;5011829;28;20059;-79
2023/01/05 00:37:26;;;;;;;24.50;2.75;;;9.80;99.90;;;;;;5012137;28;20048;-79
2023/01/05 00:39:51;;;;;;;19.33;2.58;;;9.60;99.90;;;;;;4995848;28;20071;-79
2023/01/05 00:42:17;;;;;;;22.83;4.47;;;9.60;99.90;;;;;;5029156;28;20048;-79
2023/01/05 00:44:43;;;;;;;30.38;3.47;;;9.60;99.90;;;;;;5028342;28;20076;-79
2023/01/05 00:47:09;;;;;;;23.05;2.83;;;9.60;99.90;;;;;;5027912;28;20041;-78
2023/01/05 00:49:34;;;;;;;14.90;4.35;;;10.10;99.90;;;;;;5011997;28;20037;-79
2023/01/05 00:52:00;;;;;;;23.38;2.97;;;10.40;99.90;;;;;;5027971;28;20409;-79
2023/01/05 00:54:26;;;;;;;22.77;2.53;;;9.60;99.90;;;;;;5011644;28;20044;-79
2023/01/05 00:56:52;;;;;;;26.08;3.33;;;9.60;99.90;;;;;;5028112;28;20045;-79
2023/01/05 00:59:17;;;;;;;23.33;3.05;;;9.60;99.90;;;;;;5046553;28;20495;-79
2023/01/05 01:01:47;;;;;;;25.02;3.60;;;9.50;99.90;;;;;;5028553;28;20091;-79
2023/01/05 01:04:14;;;;;;;22.02;4.72;;;9.60;99.90;;;;;;5028087;28;20124;-79
2023/01/05 01:06:39;;;;;;;26.85;3.22;;;9.60;99.90;;;;;;5045998;28;20048;-79
2023/01/05 01:09:05;;;;;;;28.92;4.38;;;9.60;99.90;;;;;;5027642;28;20055;-79
2023/01/05 01:11:31;;;;;;;24.83;3.47;;;9.60;99.90;;;;;;5045969;28;20095;-79
2023/01/05 01:13:57;;;;;;;28.25;2.85;;;9.60;99.90;;;;;;5011210;28;20048;-79
2023/01/05 01:16:23;;;;;;;28.33;4.88;;;9.60;99.90;;;;;;5028244;28;20037;-79
2023/01/05 01:18:49;;;;;;;26.38;4.28;;;9.60;99.90;;;;;;5027893;28;20046;-78
2023/01/05 01:21:15;;;;;;;28.40;3.20;;;9.60;99.90;;;;;;5027849;28;20082;-79
2023/01/05 01:23:42;;;;;;;21.85;3.53;;;9.60;99.90;;;;;;5027774;28;20049;-78
2023/01/05 01:26:10;;;;;;;21.58;2.78;;;9.60;99.90;;;;;;5027210;28;20045;-77
2023/01/05 01:28:36;;;;;;;24.63;3.28;;;9.60;99.90;;;;;;5027624;28;20076;-77
2023/01/05 01:31:02;;;;;;;24.15;3.83;;;9.80;99.90;;;;;;5011113;28;20437;-78
2023/01/05 01:33:29;;;;;;;20.73;2.60;;;9.70;99.90;;;;;;5027916;28;20052;-78
2023/01/05 01:35:55;;;;;;;21.02;3.22;;;9.70;99.90;;;;;;5027513;28;20052;-78
2023/01/05 01:38:21;;;;;;;35.97;3.83;;;9.70;99.90;;;;;;5027005;28;20516;-78
2023/01/05 01:40:47;;;;;;;29.90;6.47;;;9.70;99.90;;;;;;5011451;28;20431;-78
2023/01/05 01:43:15;;;;;;;36.10;5.53;;;9.70;99.90;;;;;;5027614;28;20049;-78
2023/01/05 01:45:41;;;;;;;19.02;2.63;;;9.70;99.90;;;;;;5045824;28;20049;-79
2023/01/05 01:48:10;;;;;;;23.90;3.42;;;9.70;99.90;;;;;;5045385;28;20080;-77
2023/01/05 01:50:50;;;;;;;23.15;2.63;;;9.80;99.90;;;;;;5045596;28;20041;-78
2023/01/05 01:53:23;;;;;;;21.88;3.50;;;9.80;99.90;;;;;;5045500;28;20041;-78
2023/01/05 01:55:50;;;;;;;24.90;3.08;;;9.80;99.90;;;;;;5027389;28;20408;-78
2023/01/05 01:58:18;;;;;;;24.25;3.75;;;9.80;99.90;;;;;;5026945;28;20049;-78
2023/01/05 02:00:45;;;;;;;20.73;4.43;;;9.80;99.90;;;;;;5026696;28;20047;-78
2023/01/05 02:03:12;;;;;;;30.00;2.92;;;9.80;99.90;;;;;;5027281;28;20080;-78
2023/01/05 02:05:38;;;;;;;23.70;3.85;;;9.80;99.90;;;;;;5026728;28;20053;-78
2023/01/05 02:08:11;;;;;;;18.58;3.63;;;9.90;99.90;;;;;;5027109;28;20477;-78
2023/01/05 02:11:01;;;;;;;28.42;3.63;;;9.80;99.90;;;;;;5011034;28;20094;-77
2023/01/05 02:13:46;;;;;;;26.75;3.40;;;9.80;99.90;;;;;;5010438;28;20049;-78
2023/01/05 02:16:32;;;;;;;31.02;4.03;;;9.80;99.90;;;;;;5027221;28;20123;-78
2023/01/05 02:19:10;;;;;;;18.30;2.97;;;9.70;99.90;;;;;;5010743;28;20090;-78
2023/01/05 02:21:44;;;;;;;23.05;3.42;;;9.70;99.90;;;;;;5026834;28;20049;-78
2023/01/05 02:24:19;;;;;;;23.35;3.28;;;9.80;99.90;;;;;;5026807;28;20045;-78
2023/01/05 02:27:10;;;;;;;22.98;3.35;;;9.80;99.90;;;;;;5026443;28;20045;-78
2023/01/05 02:29:55;;;;;;;17.30;2.65;;;9.80;99.90;;;;;;5018448;28;20053;-78
2023/01/05 02:32:48;;;;;;;35.13;3.50;;;9.80;99.90;;;;;;5010828;28;20045;-78
2023/01/05 02:35:26;;;;;;;24.35;5.60;;;9.70;99.90;;;;;;5026765;28;20085;-78
2023/01/05 02:38:21;;;;;;;18.73;2.40;;;9.70;99.90;;;;;;5026900;28;20044;-79
2023/01/05 02:40:49;;;;;;;29.08;5.78;;;9.70;99.90;;;;;;5001869;28;20063;-78
2023/01/05 02:43:19;;;;;;;23.33;3.28;;;9.70;99.90;;;;;;5026684;28;20095;-78
2023/01/05 02:45:46;;;;;;;20.25;2.88;;;9.80;99.90;;;;;;5010319;28;20084;-78
2023/01/05 02:48:12;;;;;;;29.83;3.30;;;9.80;99.90;;;;;;4993833;28;20136;-78
2023/01/05 02:51:00;;;;;;;26.23;3.47;;;9.70;99.90;;;;;;5046180;28;20140;-78
2023/01/05 02:53:34;;;;;;;28.05;4.15;;;9.70;99.90;;;;;;5014667;28;20037;-77
2023/01/05 02:56:09;;;;;;;20.35;3.25;;;9.70;99.90;;;;;;5030737;28;20454;-78
2023/01/05 02:58:44;;;;;;;29.67;3.58;;;9.70;99.90;;;;;;5048670;28;20057;-78
2023/01/05 03:01:28;;;;;;;22.65;4.07;;;9.70;99.90;;;;;;5030296;28;20137;-78
2023/01/05 03:04:17;;;;;;;25.27;3.72;;;9.80;99.90;;;;;;5048656;28;20107;-78
2023/01/05 03:06:46;;;;;;;18.48;3.30;;;9.70;99.90;;;;;;5047975;28;20072;-78
2023/01/05 03:09:14;;;;;;;23.65;3.35;;;10.20;99.90;;;;;;5030376;28;20053;-78
2023/01/05 03:15:29;;;;;;;31.50;4.20;;;9.70;99.90;;;;;;5030505;28;20190;-78
2023/01/05 03:18:03;;;;;;;25.20;3.35;;;9.70;99.90;;;;;;5044556;28;20057;-79
2023/01/05 03:20:31;;;;;;;24.33;3.03;;;9.80;99.90;;;;;;5030567;28;20041;-79
2023/01/05 03:37:35;;;;;;;;;;;9.70;99.90;;;;;;5048655;28;20056;-78
2023/01/05 03:40:03;;;;;;;30.52;2.75;;;9.70;99.90;;;;;;5047401;28;19921;-78
2023/01/05 03:42:30;;;;;;;24.00;2.95;;;9.80;99.90;;;;;;5030124;28;20106;-78
2023/01/05 03:44:57;;;;;;;26.88;4.35;;;9.80;99.90;;;;;;5013582;28;20044;-78
2023/01/05 03:47:23;;;;;;;23.48;3.42;;;9.70;99.90;;;;;;5047252;28;20041;-78
2023/01/05 03:49:50;;;;;;;24.73;3.63;;;9.70;99.90;;;;;;5047901;28;20083;-78
2023/01/05 03:52:16;;;;;;;22.60;3.08;;;10.00;99.90;;;;;;5029789;28;20099;-78
2023/01/05 03:54:41;;;;;;;23.92;2.92;;;9.80;99.90;;;;;;5030262;28;20076;-78
2023/01/05 03:57:07;;;;;;;25.58;3.33;;;9.80;99.90;;;;;;5047251;28;20048;-78
2023/01/05 03:59:33;;;;;;;23.67;3.50;;;9.80;99.90;;;;;;5012899;28;20098;-78
2023/01/05 04:01:59;;;;;;;23.40;2.72;;;9.80;99.90;;;;;;5013131;28;20044;-78
2023/01/05 04:04:24;;;;;;;15.70;3.05;;;9.80;99.90;;;;;;5029278;28;20045;-78
2023/01/05 04:06:50;;;;;;;24.10;4.80;;;9.80;99.90;;;;;;5029519;28;20068;-78
2023/01/05 04:09:16;;;;;;;20.17;3.60;;;9.80;99.90;;;;;;5047188;28;20048;-78
2023/01/05 04:11:41;;;;;;;20.20;3.08;;;9.70;99.90;;;;;;5029787;28;20045;-78
2023/01/05 04:14:07;;;;;;;30.73;4.03;;;9.80;99.90;;;;;;5046950;28;20057;-78
2023/01/05 04:16:33;;;;;;;22.08;3.03;;;9.80;99.90;;;;;;5012949;28;20048;-78
2023/01/05 04:18:58;;;;;;;26.83;3.28;;;9.90;99.90;;;;;;5047127;28;20063;-78
2023/01/05 04:21:24;;;;;;;19.55;3.25;;;9.80;99.90;;;;;;5028608;28;20101;-78
2023/01/05 04:23:50;;;;;;;30.90;2.90;;;9.80;99.90;;;;;;5046764;28;20097;-78
2023/01/05 04:26:15;;;;;;;22.60;4.22;;;9.80;99.90;;;;;;5046695;28;20049;-78
2023/01/05 04:28:41;;;;;;;25.63;3.13;;;9.80;99.90;;;;;;5012349;28;20496;-78
2023/01/05 04:31:07;;;;;;;32.47;3.85;;;9.80;99.90;;;;;;5012539;28;20036;-78
2023/01/05 04:33:32;;;;;;;27.13;3.50;;;9.70;99.90;;;;;;5047097;28;20692;-78
2023/01/05 04:35:58;;;;;;;18.80;2.78;;;9.80;99.90;;;;;;5046850;28;20091;-78
2023/01/05 04:38:24;;;;;;;24.25;5.07;;;9.80;99.90;;;;;;5011973;28;20051;-78
2023/01/05 04:40:50;;;;;;;23.40;4.18;;;9.80;99.90;;;;;;5028657;28;20045;-78
2023/01/05 04:43:17;;;;;;;21.55;3.47;;;9.80;99.90;;;;;;5046673;28;20051;-78
2023/01/05 04:45:47;;;;;;;24.00;3.40;;;9.90;99.90;;;;;;5046697;28;20044;-78
2023/01/05 04:48:12;;;;;;;24.48;3.55;;;9.80;99.90;;;;;;5028206;28;20484;-79
2023/01/05 04:50:38;;;;;;;19.85;2.72;;;9.80;99.90;;;;;;5028540;28;20136;-79
2023/01/05 04:53:04;;;;;;;25.88;2.25;;;9.80;99.90;;;;;;5046589;28;20389;-78
2023/01/05 04:55:29;;;;;;;21.73;2.63;;;9.80;99.90;;;;;;5046045;28;20036;-78
2023/01/05 04:57:55;;;;;;;21.83;4.50;;;9.80;99.90;;;;;;5028190;28;20087;-79
2023/01/05 05:00:21;;;;;;;29.45;3.28;;;9.80;99.90;;;;;;5046107;28;20124;-79
2023/01/05 05:02:47;;;;;;;25.08;3.90;;;10.60;99.90;;;;;;5046181;28;20052;-79
2023/01/05 05:05:12;;;;;;;18.77;3.10;;;9.90;99.90;;;;;;5045680;28;20048;-78
2023/01/05 05:07:38;;;;;;;26.55;3.38;;;9.70;99.90;;;;;;5046469;28;20111;-78
2023/01/05 05:10:04;;;;;;;21.55;2.85;;;9.80;99.90;;;;;;5045953;28;20049;-78
2023/01/05 05:12:30;;;;;;;21.75;3.05;;;9.80;99.90;;;;;;5028004;28;20123;-78
2023/01/05 05:14:56;;;;;;;25.50;3.03;;;9.80;99.90;;;;;;5027272;28;20077;-79
2023/01/05 05:17:21;;;;;;;22.50;2.90;;;9.80;99.90;;;;;;5045322;28;20044;-78
2023/01/05 05:19:47;;;;;;;22.60;4.05;;;9.80;99.90;;;;;;5046094;28;20045;-79
2023/01/05 05:22:13;;;;;;;25.20;3.28;;;9.80;99.90;;;;;;5045508;28;20424;-79
2023/01/05 05:24:38;;;;;;;27.52;3.08;;;9.80;99.90;;;;;;5046163;28;20044;-79
2023/01/05 05:27:04;;;;;;;22.23;3.22;;;9.80;99.90;;;;;;5027670;28;20167;-78
2023/01/05 05:29:30;;;;;;;28.67;3.88;;;9.80;99.90;;;;;;5028022;28;20115;-79
2023/01/05 05:31:56;;;;;;;21.30;3.10;;;9.80;99.90;;;;;;5011898;28;20059;-79
2023/01/05 05:34:21;;;;;;;32.75;3.30;;;9.70;99.90;;;;;;5027535;28;20547;-79
2023/01/05 05:36:47;;;;;;;26.67;4.35;;;9.70;99.90;;;;;;5027844;28;20450;-78
2023/01/05 05:39:14;;;;;;;20.13;3.78;;;9.80;99.90;;;;;;5045429;28;20066;-79
2023/01/05 05:41:40;;;;;;;20.73;3.63;;;9.70;99.90;;;;;;5045949;28;20064;-80
2023/01/05 05:44:06;;;;;;;24.10;2.88;;;9.80;99.90;;;;;;5045937;28;20520;-80
2023/01/05 05:46:32;;;;;;;22.88;3.45;;;9.70;99.90;;;;;;5027365;28;20088;-81
2023/01/05 05:48:58;;;;;;;24.67;2.90;;;9.80;99.90;;;;;;5027509;28;20081;-80
2023/01/05 05:51:25;;;;;;;15.98;3.20;;;9.80;99.90;;;;;;5027497;28;20048;-80
2023/01/05 05:53:51;;;;;;;36.50;4.05;;;10.30;99.90;;;;;;5011005;28;20069;-80
2023/01/05 05:56:17;;;;;;;21.92;3.72;;;9.80;99.90;;;;;;5011230;28;20041;-80
2023/01/05 05:58:43;;;;;;;21.05;2.95;;;9.80;99.90;;;;;;5011285;28;20037;-79
2023/01/05 06:01:09;;;;;;;22.38;3.22;;;9.80;99.90;;;;;;5010817;28;20439;-79
2023/01/05 06:03:35;;;;;;;27.35;4.95;;;9.80;99.90;;;;;;5010797;28;20136;-80
2023/01/05 06:06:01;;;;;;;28.13;4.00;;;9.80;99.90;;;;;;5026776;28;20099;-78
2023/01/05 06:08:28;;;;;;;22.00;3.85;;;9.80;99.90;;;;;;5010603;28;20374;-79
2023/01/05 06:10:55;;;;;;;28.23;3.22;;;9.80;99.90;;;;;;5010972;28;20041;-79
2023/01/05 06:13:21;;;;;;;18.80;3.17;;;9.70;99.90;;;;;;5027105;28;20076;-79
2023/01/05 06:15:47;;;;;;;15.38;3.28;;;9.80;99.90;;;;;;5010931;28;20362;-78
2023/01/05 06:18:13;;;;;;;26.48;3.53;;;9.80;99.90;;;;;;4994082;28;20044;-78
2023/01/05 06:20:39;;;;;;;28.35;2.67;;;9.70;99.90;;;;;;5027843;28;20047;-79
2023/01/05 06:23:05;;;;;;;24.60;3.22;;;9.70;99.90;;;;;;5028657;28;20055;-80
2023/01/05 06:25:31;;;;;;;20.10;4.25;;;9.70;99.90;;;;;;5013259;28;20044;-79
2023/01/05 06:27:57;;;;;;;21.95;4.28;;;9.70;99.90;;;;;;4979475;28;20041;-80
2023/01/05 06:30:23;;;;;;;16.10;2.38;;;9.70;99.90;;;;;;5045266;28;20052;-80
2023/01/05 06:32:49;;;;;;;31.08;5.53;;;9.60;99.90;;;;;;5010494;28;20044;-78
2023/01/05 06:35:15;;;;;;;23.02;3.15;;;9.60;99.90;;;;;;5010596;28;20055;-79
2023/01/05 06:37:41;;;;;;;17.98;2.72;;;9.60;99.90;;;;;;5026930;28;20041;-78
2023/01/05 06:40:08;;;;;;;19.52;2.80;;;9.50;99.90;;;;;;5027091;28;20057;-78
2023/01/05 06:42:34;;;;;;;23.25;3.03;;;9.50;99.90;;;;;;5010487;28;20053;-80
2023/01/05 06:45:00;;;;;;;24.42;3.53;;;9.40;99.90;;;;;;5026869;28;20497;-79
2023/01/05 06:47:25;;;;;;;28.83;3.33;;;9.50;99.90;;;;;;5010426;28;20071;-79
2023/01/05 06:49:51;;;;;;;17.70;2.75;;;9.60;99.90;;;;;;5027217;28;20048;-79
2023/01/05 06:52:17;;;;;;;25.77;4.05;;;9.50;99.90;;;;;;5026713;28;20108;-79
2023/01/05 06:54:43;;;;;;;33.92;4.88;;;9.50;99.90;;;;;;5027261;28;20051;-79
2023/01/05 06:57:10;;;;;;;30.60;3.65;;;9.50;99.90;;;;;;5044772;28;20238;-80
2023/01/05 06:59:36;;;;;;;28.95;3.22;;;9.50;99.90;;;;;;5026463;28;20124;-80
2023/01/05 07:02:02;;;;;;;26.40;3.67;;;9.50;99.90;;;;;;5010232;28;20041;-79
2023/01/05 07:04:27;;;;;;;26.00;3.40;;;9.50;99.90;;;;;;4993601;28;20555;-80
2023/01/05 07:06:53;;;;;;;29.27;4.47;;;9.50;99.90;;;;;;5026626;28;20049;-81
2023/01/05 07:09:19;;;;;;;30.45;4.53;;;9.50;99.90;;;;;;5009858;28;20095;-80
2023/01/05 07:11:44;;;;;;;19.92;4.35;;;10.00;99.90;;;;;;5045079;28;20147;-78
2023/01/05 07:14:10;;;;;;;24.67;3.63;;;9.50;99.90;;;;;;5026455;28;20108;-79
2023/01/05 07:16:36;;;;;;;29.88;3.13;;;9.50;99.90;;;;;;5044389;28;20052;-79
2023/01/05 07:19:01;;;;;;;29.05;4.50;;;9.50;99.90;;;;;;5026416;28;20152;-79
2023/01/05 07:21:27;;;;;;;34.65;4.85;;;9.50;99.90;;;;;;5043758;28;20222;-79
2023/01/05 07:23:53;;;;;;;29.88;3.45;;;9.50;99.90;;;;;;5026673;28;20489;-79
2023/01/05 07:26:18;;;;;;;22.98;2.63;;;9.50;99.90;;;;;;5009767;28;20037;-79
2023/01/05 07:28:44;;;;;;;22.67;2.90;;;9.50;99.90;;;;;;5026879;28;20049;-79
2023/01/05 07:31:10;;;;;;;30.67;3.67;;;9.50;99.90;;;;;;5026016;28;20139;-79
2023/01/05 07:33:36;;;;;;;26.17;4.05;;;9.50;99.90;;;;;;4993632;28;20124;-78
2023/01/05 07:36:02;;;;;;;26.30;3.67;;;9.50;99.90;;;;;;5026355;28;20088;-79
2023/01/05 07:38:29;;;;;;;21.92;3.65;;;9.50;99.90;;;;;;5028966;28;20102;-79
2023/01/05 07:40:58;;;;;;;21.98;4.38;;;9.50;99.90;;;;;;5013378;28;20132;-79
2023/01/05 07:43:24;;;;;;;16.42;2.90;;;9.50;99.90;;;;;;5013173;28;20083;-79
2023/01/05 07:45:50;;;;;;;28.63;3.58;;;9.50;99.90;;;;;;5030305;28;20077;-79
2023/01/05 07:48:16;;;;;;;43.40;5.30;;;9.50;99.90;;;;;;5047424;28;20059;-79
2023/01/05 07:50:41;;;;;;;33.05;3.90;;;9.40;99.90;;;;;;5030092;28;20056;-79
2023/01/05 07:53:07;;;;;;;20.33;2.85;;;9.50;99.90;;;;;;5029817;28;20048;-80
2023/01/05 07:55:33;;;;;;;24.65;2.28;;;9.40;99.90;;;;;;5013311;28;20086;-79
2023/01/05 07:57:58;;;;;;;32.33;4.43;;;9.40;99.90;;;;;;4996842;28;20077;-79
2023/01/05 08:00:24;;;;;;;30.38;4.35;;;9.40;99.90;;;;;;4997008;28;20068;-79
2023/01/05 08:02:50;;;;;;;30.88;4.18;;;9.40;99.90;;;;;;5029590;28;20476;-79
2023/01/05 08:05:16;;;;;;;22.88;3.13;;;9.40;99.90;;;;;;5029548;28;20131;-79
2023/01/05 08:07:42;;;;;;;16.35;2.58;;;9.40;99.90;;;;;;5030423;28;20488;-80
2023/01/05 08:10:27;;;;;;;24.88;3.28;;;9.80;99.90;;;;;;4998736;28;20060;-80
2023/01/05 08:15:37;;;;;;;17.45;2.83;;;9.40;99.90;;;;;;5047742;28;20059;-79
2023/01/05 08:18:03;;;;;;;31.23;4.00;;;9.90;99.90;;;;;;5012565;28;20052;-80
2023/01/05 08:20:29;;;;;;;24.08;2.72;;;9.40;99.90;;;;;;4996455;28;20048;-80
2023/01/05 08:22:54;;;;;;;23.13;3.60;;;9.50;99.90;;;;;;5047436;28;20408;-80
2023/01/05 08:25:20;;;;;;;28.15;3.72;;;9.50;99.90;;;;;;5012079;28;20045;-80
2023/01/05 08:27:46;;;;;;;19.73;2.95;;;9.50;99.90;;;;;;5029391;28;20045;-80
2023/01/05 08:30:13;;;;;;;19.25;2.83;;;9.50;99.90;;;;;;5047000;28;20049;-80
2023/01/05 08:32:39;;;;;;;22.63;1.92;;;9.50;99.90;;;;;;5028809;28;20041;-80
2023/01/05 08:35:05;;;;;;;23.85;4.03;;;9.50;99.90;;;;;;5028535;28;20153;-80
2023/01/05 08:37:31;;;;;;;23.35;3.10;;;9.50;99.90;;;;;;5012489;28;20099;-80
2023/01/05 08:39:57;;;;;;;25.52;2.78;;;9.60;99.90;;;;;;5012161;28;20048;-80
2023/01/05 08:42:23;;;;;;;21.15;2.88;;;9.50;99.90;;;;;;5028205;28;20049;-80
2023/01/05 08:44:49;;;;;;;19.02;2.90;;;9.50;99.90;;;;;;5028670;28;20041;-80
2023/01/05 08:47:14;;;;;;;16.52;3.35;;;9.50;99.90;;;;;;4995818;28;20094;-80
2023/01/05 08:49:40;;;;;;;25.58;5.60;;;9.50;99.90;;;;;;5012051;28;20526;-80
2023/01/05 08:52:07;;;;;;;22.85;2.75;;;9.50;99.90;;;;;;5028006;28;20045;-80
2023/01/05 08:54:33;;;;;;;34.60;3.97;;;9.40;99.90;;;;;;5028587;28;20489;-80
2023/01/05 08:56:59;;;;;;;35.05;4.63;;;9.90;99.90;;;;;;5028116;28;20052;-80
2023/01/05 08:59:25;;;;;;;32.65;3.70;;;9.40;99.90;;;;;;5028337;28;20049;-80
2023/01/05 09:01:50;;;;;;;30.63;4.25;;;9.40;99.90;;;;;;5011742;28;20457;-80
2023/01/05 09:04:16;;;;;;;27.08;3.80;;;9.40;99.90;;;;;;4995260;28;20049;-80
2023/01/05 09:06:42;;;;;;;36.05;3.10;;;9.40;99.90;;;;;;5028058;28;20119;-80
2023/01/05 09:09:08;;;;;;;32.53;3.75;;;9.40;99.90;;;;;;5027788;28;20049;-81
2023/01/05 09:11:34;;;;;;;22.35;3.45;;;9.40;99.90;;;;;;5028752;28;20048;-80
2023/01/05 09:14:04;;;;;;;27.35;3.88;;;9.40;99.90;;;;;;5011544;28;20045;-80
2023/01/05 09:16:32;;;;;;;26.15;3.67;;;9.40;99.90;;;;;;5011206;28;20083;-80
2023/01/05 09:19:01;;;;;;;26.15;3.88;;;9.40;99.90;;;;;;5011741;28;20056;-80
2023/01/05 09:21:27;;;;;;;27.83;3.03;;;8.40;99.90;;;;;;5011303;28;20041;-80
2023/01/05 09:23:53;;;;;;;24.90;3.88;;;9.40;99.90;;;;;;5012613;28;20531;-80
2023/01/05 09:26:18;;;;;;;27.88;3.17;;;9.40;99.90;;;;;;5011309;28;20702;-80
2023/01/05 09:28:44;;;;;;;24.92;2.55;;;9.40;99.90;;;;;;5012690;28;20040;-80
2023/01/05 09:31:19;;;;;;;20.42;2.47;;;9.30;99.90;;;;;;5029469;28;20128;-80
2023/01/05 09:33:45;;;;;;;32.55;7.30;;;9.30;99.90;;;;;;5027689;28;20409;-80
2023/01/05 09:36:12;;;;;;;13.20;2.10;;;9.40;99.90;;;;;;5027807;28;20051;-80
2023/01/05 09:38:38;;;;;;;18.42;1.70;;;10.10;99.90;;;;;;5027269;28;20056;-80
2023/01/05 09:41:12;;;;;;;17.98;2.75;;;9.40;99.90;;;;;;5045785;28;20167;-79
2023/01/05 09:43:41;;;;;;;21.63;2.38;;;9.40;99.90;;;;;;5045246;28;20500;-79
2023/01/05 09:46:19;;;;;;;21.65;2.53;;;9.40;99.90;;;;;;5027858;28;20128;-79
2023/01/05 09:48:56;;;;;;;17.48;1.77;;;9.40;99.90;;;;;;5028017;28;20148;-79
2023/01/05 09:51:22;;;;;;;18.42;4.15;;;9.40;99.90;;;;;;5045215;28;20107;-79
2023/01/05 09:53:48;;;;;;;13.80;2.90;;;9.50;99.90;;;;;;4994795;28;20595;-79
2023/01/05 09:56:36;;;;;;;11.23;1.77;;;9.40;99.90;;;;;;5027050;28;20048;-79
2023/01/05 09:59:30;;;;;;;16.00;1.60;;;9.50;99.90;;;;;;5010691;28;20088;-79
2023/01/05 10:02:03;;;;;;;14.35;1.23;;;9.50;99.90;;;;;;5027791;28;20451;-79
2023/01/05 10:04:31;;;;;;;10.85;2.28;;;9.50;99.90;;;;;;5045194;28;20053;-79
2023/01/05 10:07:06;;;;;;;14.77;2.88;;;9.50;99.90;;;;;;5045318;28;20120;-79
2023/01/05 10:09:37;;;;;;;17.15;1.58;;;9.50;99.90;;;;;;5045148;28;20126;-80
2023/01/05 10:15:11;;;;;;;12.85;1.75;;;9.60;99.90;;;;;;5027083;28;20060;-80
2023/01/05 10:17:41;;;;;;;13.40;1.73;;;9.60;99.90;;;;;;5044567;28;20380;-79
2023/01/05 10:20:42;;;;;;;12.55;2.03;;;9.60;99.90;;;;;;5027773;28;20049;-80
2023/01/05 10:23:39;;;;;;;11.55;2.85;;;9.70;99.90;;;;;;5027219;28;20553;-80
2023/01/05 10:26:15;;;;;;;15.45;2.13;;;9.70;99.90;;;;;;5027064;28;20476;-79
2023/01/05 10:28:56;;;;;;;13.38;2.25;;;9.80;99.90;;;;;;5045383;28;20085;-79
2023/01/05 10:31:44;;;;;;;17.33;2.13;;;9.70;99.90;;;;;;5027687;28;20380;-78
2023/01/05 10:34:21;;;;;;;16.45;2.38;;;9.80;99.90;;;;;;5044602;28;20040;-79
2023/01/05 10:37:05;;;;;;;13.98;2.08;;;9.80;99.90;;;;;;5026822;28;20044;-79
2023/01/05 10:40:20;;;;;;;23.55;3.63;;;9.80;99.90;;;;;;5010285;28;20391;-79
2023/01/05 10:42:55;;;;;;;28.65;3.05;;;9.80;99.90;;;;;;4998969;28;20061;-79
2023/01/05 10:45:22;;;;;;;17.63;2.05;;;9.80;99.90;;;;;;5026932;28;20045;-79
2023/01/05 10:47:48;;;;;;;23.67;2.85;;;9.80;99.90;;;;;;5044164;28;20052;-79
2023/01/05 10:50:36;;;;;;;17.75;2.47;;;9.80;99.90;;;;;;5026905;28;20159;-79
2023/01/05 10:53:15;;;;;;;22.05;2.85;;;9.90;99.90;;;;;;5027071;28;20041;-79
2023/01/05 10:55:50;;;;;;;16.85;2.15;;;9.80;99.90;;;;;;5009790;28;20049;-79
2023/01/05 10:58:21;;;;;;;23.38;2.20;;;9.90;99.90;;;;;;5026591;28;20049;-79
2023/01/05 11:00:48;;;;;;;13.20;2.45;;;9.90;99.90;;;;;;5043992;28;20465;-79
2023/01/05 11:03:16;;;;;;;13.63;1.75;;;9.90;99.90;;;;;;5010535;28;20045;-79
2023/01/05 11:05:46;;;;;;;17.25;2.13;;;10.00;99.90;;;;;;5044300;28;20057;-79
2023/01/05 11:08:20;;;;;;;10.68;1.80;;;10.00;99.90;;;;;;5026042;28;20492;-79
2023/01/05 11:10:52;;;;;;;10.88;1.52;;;10.00;99.90;;;;;;5044584;28;20049;-79
2023/01/05 11:13:27;;;;;;;21.53;3.57;;;10.10;99.90;;;;;;5029123;28;20135;-79
2023/01/05 11:15:55;;;;;;;9.30;1.48;;;10.10;99.90;;;;;;5031167;28;20048;-79
2023/01/05 11:18:50;;;;;;;17.50;2.63;;;10.50;99.90;;;;;;5048054;28;20044;-79
2023/01/05 11:21:23;;;;;;;9.35;1.88;;;10.10;99.90;;;;;;5029612;28;20052;-79
2023/01/05 11:23:55;;;;;;;12.73;1.52;;;10.10;99.90;;;;;;5030346;28;20099;-79
2023/01/05 11:26:24;;;;;;;13.10;1.42;;;10.10;99.90;;;;;;5013415;28;20128;-83
2023/01/05 11:29:01;;;;;;;14.55;1.45;;;10.10;99.90;;;;;;5029973;28;20049;-80
2023/01/05 11:31:31;;;;;;;10.88;1.95;;;9.70;99.90;;;;;;5030174;28;20056;-80
2023/01/05 11:34:06;;;;;;;8.77;1.95;;;10.10;99.90;;;;;;5030216;28;20334;-80
2023/01/05 11:36:32;;;;;;;9.60;1.83;;;10.40;99.90;;;;;;5030289;28;20056;-80
2023/01/05 11:38:58;;;;;;;15.40;3.85;;;10.10;99.90;;;;;;5029458;28;20057;-80
2023/01/05 11:41:24;;;;;;;14.45;1.63;;;10.10;99.90;;;;;;5030169;28;20124;-79
2023/01/05 11:43:53;;;;;;;7.22;1.20;;;10.00;99.90;;;;;;5029421;28;20045;-79
2023/01/05 11:46:20;;;;;;;18.25;2.25;;;10.00;99.90;;;;;;4996687;28;20080;-79
2023/01/05 11:48:55;;;;;;;14.55;2.33;;;10.00;99.90;;;;;;5013566;28;20091;-80
2023/01/05 11:51:38;;;;;;;13.95;2.08;;;10.00;99.90;;;;;;5029219;28;20450;-79
2023/01/05 11:54:23;;;;;;;16.48;2.10;;;10.00;99.90;;;;;;5030105;28;20049;-79
2023/01/05 11:57:05;;;;;;;21.42;2.65;;;10.00;99.90;;;;;;5015410;28;20132;-79
2023/01/05 11:59:36;;;;;;;11.33;1.20;;;10.00;99.90;;;;;;5028010;28;20500;-79
2023/01/05 12:02:41;;;;;;;17.70;1.80;;;10.00;99.90;;;;;;5047763;28;20442;-79
2023/01/05 12:05:26;;;;;;;16.80;2.08;;;10.00;99.90;;;;;;5028637;28;20118;-79
2023/01/05 12:08:08;;;;;;;15.10;2.05;;;10.00;99.90;;;;;;5029178;28;20048;-79
2023/01/05 12:10:44;;;;;;;15.77;3.10;;;10.10;99.90;;;;;;5029839;28;20060;-79
2023/01/05 12:13:29;;;;;;;23.10;2.30;;;10.00;99.90;;;;;;5029132;28;20041;-79
2023/01/05 12:16:12;;;;;;;11.65;2.92;;;10.00;99.90;;;;;;5048012;28;20052;-80
2023/01/05 12:19:08;;;;;;;21.77;2.53;;;10.10;99.90;;;;;;5012993;28;20037;-80
2023/01/05 12:21:44;;;;;;;12.75;1.70;;;10.10;99.90;;;;;;5028697;28;20037;-80
2023/01/05 12:24:37;;;;;;;31.80;4.22;;;10.20;99.90;;;;;;5047108;28;20041;-80
2023/01/05 12:27:36;;;;;;;15.98;1.85;;;10.20;99.90;;;;;;5029349;28;20069;-80
2023/01/05 12:30:28;;;;;;;16.55;2.25;;;10.20;99.90;;;;;;5012658;28;20052;-80
2023/01/05 12:33:40;;;;;;;7.13;1.47;;;10.30;99.90;;;;;;5029386;28;20083;-80
2023/01/05 12:36:45;;;;;;;11.38;1.65;;;10.40;99.90;;;;;;5028635;28;20379;-80
2023/01/05 12:39:55;;;;;;;13.35;1.92;;;10.40;99.90;;;;;;5028162;28;20098;-80
2023/01/05 12:42:46;;;;;;;10.07;2.03;;;10.50;99.90;;;;;;5028787;28;20374;-80
2023/01/05 12:45:24;;;;;;;10.05;1.88;;;10.60;99.90;;;;;;5047090;28;20045;-79
2023/01/05 12:48:24;;;;;;;12.38;1.90;;;10.60;99.90;;;;;;5028342;28;20037;-79
2023/01/05 12:51:08;;;;;;;17.30;1.95;;;10.50;99.90;;;;;;5012235;28;20380;-80
2023/01/05 12:53:49;;;;;;;9.45;1.20;;;10.50;99.90;;;;;;5028923;28;20114;-79
2023/01/05 12:56:17;;;;;;;13.52;2.45;;;10.50;99.90;;;;;;5028385;28;20041;-79
2023/01/05 12:59:05;;;;;;;14.63;2.40;;;10.50;99.90;;;;;;5028913;28;20116;-80
2023/01/05 13:01:41;;;;;;;12.45;1.90;;;10.40;99.90;;;;;;5046359;28;20443;-80
2023/01/05 13:04:26;;;;;;;21.80;2.55;;;10.40;99.90;;;;;;5027774;28;20041;-80
2023/01/05 13:06:56;;;;;;;11.50;2.10;;;10.40;99.90;;;;;;5028110;28;20057;-80
2023/01/05 13:09:24;;;;;;;16.90;2.17;;;10.40;99.90;;;;;;5027946;28;20057;-80
2023/01/05 13:12:05;;;;;;;15.75;2.13;;;10.30;99.90;;;;;;5011749;28;20041;-79
2023/01/05 13:14:40;;;;;;;16.30;2.20;;;10.30;99.90;;;;;;5028090;28;20060;-79
2023/01/05 13:17:20;;;;;;;20.25;2.60;;;10.30;99.90;;;;;;5028046;28;20049;-79
2023/01/05 13:19:49;;;;;;;14.23;2.17;;;10.30;99.90;;;;;;5046213;28;20049;-79
2023/01/05 13:22:37;;;;;;;16.70;2.30;;;10.20;99.90;;;;;;5045569;28;20403;-80
2023/01/05 13:25:15;;;;;;;14.43;2.05;;;10.40;99.90;;;;;;5045529;28;20523;-79
2023/01/05 13:27:41;;;;;;;15.82;2.35;;;10.30;99.90;;;;;;5045706;28;20080;-80
2023/01/05 13:30:18;;;;;;;20.98;2.90;;;10.40;99.90;;;;;;5027524;28;20557;-80
2023/01/05 13:33:11;;;;;;;18.10;2.38;;;10.40;99.90;;;;;;5046033;28;20052;-80
2023/01/05 13:35:43;;;;;;;16.58;2.75;;;10.40;99.90;;;;;;5027053;28;20492;-80
2023/01/05 13:38:30;;;;;;;14.13;2.85;;;10.40;99.90;;;;;;5045459;28;20049;-80
2023/01/05 13:41:33;;;;;;;16.30;1.70;;;10.40;99.90;;;;;;5028073;28;20084;-80